sensor_id;sensor_type;location;lat;lon;timestamp;pressure;altitude;pressure_sealevel;temperature;humidity
23170;BME280;11753;43.144;24.714;2023-02-22T00:00:44;99451.47;;;12.80;42.89
23170;BME280;11753;43.144;24.714;2023-02-22T00:01:45;99460.03;;;12.82;43.03
23170;BME280;11753;43.144;24.714;2023-02-22T00:03:17;99459.41;;;12.80;42.88
23170;BME280;11753;43.144;24.714;2023-02-22T00:04:18;99457.56;;;12.80;42.98
23170;BME280;11753;43.144;24.714;2023-02-22T00:05:20;99454.75;;;12.82;42.88
23170;BME280;11753;43.144;24.714;2023-02-22T00:06:22;99459.06;;;12.75;43.02
23170;BME280;11753;43.144;24.714;2023-02-22T00:07:24;99452.84;;;12.67;43.21
23170;BME280;11753;43.144;24.714;2023-02-22T00:08:28;99456.06;;;12.86;42.46
23170;BME280;11753;43.144;24.714;2023-02-22T00:09:29;99461.66;;;12.91;42.43
23170;BME280;11753;43.144;24.714;2023-02-22T00:10:30;99460.00;;;12.90;42.38
23170;BME280;11753;43.144;24.714;2023-02-22T00:11:31;99455.72;;;12.89;42.56
23170;BME280;11753;43.144;24.714;2023-02-22T00:12:35;99451.94;;;12.83;42.52
23170;BME280;11753;43.144;24.714;2023-02-22T00:13:37;99455.22;;;12.85;42.54
23170;BME280;11753;43.144;24.714;2023-02-22T00:14:38;99464.19;;;12.76;42.73
23170;BME280;11753;43.144;24.714;2023-02-22T00:15:39;99457.75;;;12.79;42.51
23170;BME280;11753;43.144;24.714;2023-02-22T00:16:41;99451.63;;;12.78;42.53
23170;BME280;11753;43.144;24.714;2023-02-22T00:17:42;99454.75;;;12.82;42.63
23170;BME280;11753;43.144;24.714;2023-02-22T00:18:44;99457.22;;;12.83;42.50
23170;BME280;11753;43.144;24.714;2023-02-22T00:19:47;99458.72;;;12.86;42.24
23170;BME280;11753;43.144;24.714;2023-02-22T00:20:49;99457.22;;;12.83;42.34
23170;BME280;11753;43.144;24.714;2023-02-22T00:21:53;99461.69;;;12.83;42.33
23170;BME280;11753;43.144;24.714;2023-02-22T00:22:54;99463.50;;;12.82;42.25
23170;BME280;11753;43.144;24.714;2023-02-22T00:23:55;99464.31;;;12.83;42.35
23170;BME280;11753;43.144;24.714;2023-02-22T00:24:56;99460.03;;;12.82;42.14
23170;BME280;11753;43.144;24.714;2023-02-22T00:25:59;99461.69;;;12.83;42.31
23170;BME280;11753;43.144;24.714;2023-02-22T00:27:00;99466.97;;;12.83;42.27
23170;BME280;11753;43.144;24.714;2023-02-22T00:28:03;99459.34;;;12.88;42.01
23170;BME280;11753;43.144;24.714;2023-02-22T00:29:04;99461.28;;;13.02;41.93
23170;BME280;11753;43.144;24.714;2023-02-22T00:30:06;99467.72;;;13.00;41.79
23170;BME280;11753;43.144;24.714;2023-02-22T00:31:09;99466.94;;;12.91;42.04
23170;BME280;11753;43.144;24.714;2023-02-22T00:32:09;99471.53;;;12.97;41.85
23170;BME280;11753;43.144;24.714;2023-02-22T00:33:12;99471.88;;;12.94;42.02
23170;BME280;11753;43.144;24.714;2023-02-22T00:34:13;99472.53;;;12.96;41.76
23170;BME280;11753;43.144;24.714;2023-02-22T00:35:17;99466.94;;;12.91;41.90
23170;BME280;11753;43.144;24.714;2023-02-22T00:36:18;99461.34;;;12.86;41.72
23170;BME280;11753;43.144;24.714;2023-02-22T00:37:19;99468.56;;;12.92;41.88
23170;BME280;11753;43.144;24.714;2023-02-22T00:38:20;99471.28;;;12.76;41.69
23170;BME280;11753;43.144;24.714;2023-02-22T00:39:21;99463.53;;;12.74;41.88
23170;BME280;11753;43.144;24.714;2023-02-22T00:40:25;99465.69;;;12.79;41.94
23170;BME280;11753;43.144;24.714;2023-02-22T00:41:26;99462.38;;;12.77;41.85
23170;BME280;11753;43.144;24.714;2023-02-22T00:42:27;99465.69;;;12.71;42.01
23170;BME280;11753;43.144;24.714;2023-02-22T00:43:28;99454.16;;;12.72;42.01
23170;BME280;11753;43.144;24.714;2023-02-22T00:44:29;99463.69;;;12.81;41.98
23170;BME280;11753;43.144;24.714;2023-02-22T00:45:32;99458.41;;;12.81;41.71
23170;BME280;11753;43.144;24.714;2023-02-22T00:46:33;99460.41;;;12.79;41.71
23170;BME280;11753;43.144;24.714;2023-02-22T00:47:34;99457.44;;;12.74;41.98
23170;BME280;11753;43.144;24.714;2023-02-22T00:48:35;99467.97;;;12.82;41.77
23170;BME280;11753;43.144;24.714;2023-02-22T00:49:36;99466.00;;;12.76;42.00
23170;BME280;11753;43.144;24.714;2023-02-22T00:50:38;99463.38;;;12.76;42.04
23170;BME280;11753;43.144;24.714;2023-02-22T00:51:39;99460.72;;;12.76;41.96
23170;BME280;11753;43.144;24.714;2023-02-22T00:52:40;99449.19;;;12.68;41.77
23170;BME280;11753;43.144;24.714;2023-02-22T00:53:42;99449.84;;;12.79;41.80
23170;BME280;11753;43.144;24.714;2023-02-22T00:54:43;99444.19;;;12.82;41.76
23170;BME280;11753;43.144;24.714;2023-02-22T00:55:44;99448.66;;;12.81;41.57
23170;BME280;11753;43.144;24.714;2023-02-22T00:56:45;99448.63;;;12.89;41.46
23170;BME280;11753;43.144;24.714;2023-02-22T00:57:46;99449.50;;;12.74;41.74
23170;BME280;11753;43.144;24.714;2023-02-22T00:58:47;99451.50;;;12.72;41.76
23170;BME280;11753;43.144;24.714;2023-02-22T00:59:49;99448.16;;;12.78;41.78
23170;BME280;11753;43.144;24.714;2023-02-22T01:00:50;99452.47;;;12.79;41.73
23170;BME280;11753;43.144;24.714;2023-02-22T01:01:52;99459.41;;;12.80;41.86
23170;BME280;11753;43.144;24.714;2023-02-22T01:02:53;99449.94;;;12.85;41.47
23170;BME280;11753;43.144;24.714;2023-02-22T01:03:55;99460.41;;;12.79;41.63
23170;BME280;11753;43.144;24.714;2023-02-22T01:04:56;99458.53;;;12.87;41.58
23170;BME280;11753;43.144;24.714;2023-02-22T01:05:57;99450.28;;;12.82;41.60
23170;BME280;11753;43.144;24.714;2023-02-22T01:06:58;99447.03;;;12.72;41.70
23170;BME280;11753;43.144;24.714;2023-02-22T01:08:01;99450.84;;;12.70;41.73
23170;BME280;11753;43.144;24.714;2023-02-22T01:09:03;99455.63;;;12.74;41.54
23170;BME280;11753;43.144;24.714;2023-02-22T01:10:05;99450.38;;;12.66;41.48
23170;BME280;11753;43.144;24.714;2023-02-22T01:11:11;99454.44;;;12.77;41.40
23170;BME280;11753;43.144;24.714;2023-02-22T01:12:12;99456.13;;;12.70;41.56
23170;BME280;11753;43.144;24.714;2023-02-22T01:13:13;99453.44;;;12.78;41.48
23170;BME280;11753;43.144;24.714;2023-02-22T01:14:14;99459.06;;;12.75;41.39
23170;BME280;11753;43.144;24.714;2023-02-22T01:15:18;99455.44;;;12.76;41.46
23170;BME280;11753;43.144;24.714;2023-02-22T01:16:22;99453.44;;;12.78;41.32
23170;BME280;11753;43.144;24.714;2023-02-22T01:17:23;99452.94;;;12.82;41.63
23170;BME280;11753;43.144;24.714;2023-02-22T01:18:25;99449.66;;;12.80;41.40
23170;BME280;11753;43.144;24.714;2023-02-22T01:19:26;99452.28;;;12.80;41.29
23170;BME280;11753;43.144;24.714;2023-02-22T01:20:27;99451.63;;;12.78;41.33
23170;BME280;11753;43.144;24.714;2023-02-22T01:21:29;99452.47;;;12.79;41.20
23170;BME280;11753;43.144;24.714;2023-02-22T01:22:29;99446.19;;;12.80;41.30
23170;BME280;11753;43.144;24.714;2023-02-22T01:23:31;99449.47;;;12.82;41.32
23170;BME280;11753;43.144;24.714;2023-02-22T01:24:32;99461.03;;;12.81;41.26
23170;BME280;11753;43.144;24.714;2023-02-22T01:25:34;99452.16;;;12.74;41.43
23170;BME280;11753;43.144;24.714;2023-02-22T01:26:35;99457.09;;;12.77;41.29
23170;BME280;11753;43.144;24.714;2023-02-22T01:27:37;99452.16;;;12.74;41.42
23170;BME280;11753;43.144;24.714;2023-02-22T01:28:41;99463.31;;;12.84;41.36
23170;BME280;11753;43.144;24.714;2023-02-22T01:29:42;99457.75;;;12.79;41.25
23170;BME280;11753;43.144;24.714;2023-02-22T01:30:44;99457.09;;;12.77;41.33
23170;BME280;11753;43.144;24.714;2023-02-22T01:31:51;99453.13;;;12.81;41.40
23170;BME280;11753;43.144;24.714;2023-02-22T01:32:55;99452.78;;;12.76;41.55
23170;BME280;11753;43.144;24.714;2023-02-22T01:33:56;99451.19;;;12.66;41.64
23170;BME280;11753;43.144;24.714;2023-02-22T01:34:57;99447.91;;;12.64;41.65
23170;BME280;11753;43.144;24.714;2023-02-22T01:35:58;99452.16;;;12.74;41.69
23170;BME280;11753;43.144;24.714;2023-02-22T01:37:00;99447.19;;;12.71;41.46
23170;BME280;11753;43.144;24.714;2023-02-22T01:38:03;99452.00;;;12.67;41.68
23170;BME280;11753;43.144;24.714;2023-02-22T01:39:05;99446.88;;;12.74;41.60
23170;BME280;11753;43.144;24.714;2023-02-22T01:40:08;99452.00;;;12.67;41.63
23170;BME280;11753;43.144;24.714;2023-02-22T01:41:11;99444.91;;;12.67;41.63
23170;BME280;11753;43.144;24.714;2023-02-22T01:42:12;99450.16;;;12.76;41.55
23170;BME280;11753;43.144;24.714;2023-02-22T01:44:32;99446.50;;;12.77;41.50
23170;BME280;11753;43.144;24.714;2023-02-22T01:45:39;99450.28;;;12.82;41.47
23170;BME280;11753;43.144;24.714;2023-02-22T01:46:41;99444.69;;;12.77;41.50
23170;BME280;11753;43.144;24.714;2023-02-22T01:47:42;99445.22;;;12.73;41.59
23170;BME280;11753;43.144;24.714;2023-02-22T01:49:49;99449.50;;;12.74;41.48
23170;BME280;11753;43.144;24.714;2023-02-22T01:50:56;99442.38;;;12.82;41.40
23170;BME280;11753;43.144;24.714;2023-02-22T01:52:03;99443.19;;;12.83;41.51
23170;BME280;11753;43.144;24.714;2023-02-22T01:53:05;99438.91;;;12.82;41.50
23170;BME280;11753;43.144;24.714;2023-02-22T01:54:34;99432.66;;;12.75;41.53
23170;BME280;11753;43.144;24.714;2023-02-22T01:55:37;99437.78;;;12.76;41.56
23170;BME280;11753;43.144;24.714;2023-02-22T01:56:44;99433.84;;;12.72;41.67
23170;BME280;11753;43.144;24.714;2023-02-22T01:57:49;99434.31;;;12.76;41.49
23170;BME280;11753;43.144;24.714;2023-02-22T01:58:58;99431.84;;;12.74;41.64
23170;BME280;11753;43.144;24.714;2023-02-22T02:00:10;99435.75;;;12.86;41.32
23170;BME280;11753;43.144;24.714;2023-02-22T02:01:13;99436.44;;;12.80;41.37
23170;BME280;11753;43.144;24.714;2023-02-22T02:02:15;99435.63;;;12.80;41.28
23170;BME280;11753;43.144;24.714;2023-02-22T02:03:20;99433.97;;;12.79;41.42
23170;BME280;11753;43.144;24.714;2023-02-22T02:04:22;99441.22;;;12.77;41.23
23170;BME280;11753;43.144;24.714;2023-02-22T02:05:28;99440.28;;;12.70;41.67
23170;BME280;11753;43.144;24.714;2023-02-22T02:06:32;99442.59;;;12.73;41.66
23170;BME280;11753;43.144;24.714;2023-02-22T02:07:36;99439.78;;;12.74;41.71
23170;BME280;11753;43.144;24.714;2023-02-22T02:08:47;99441.75;;;12.72;41.77
23170;BME280;11753;43.144;24.714;2023-02-22T02:09:53;99440.56;;;12.83;41.49
23170;BME280;11753;43.144;24.714;2023-02-22T02:10:57;99436.94;;;12.76;41.65
23170;BME280;11753;43.144;24.714;2023-02-22T02:11:59;99431.03;;;12.74;41.97
23170;BME280;11753;43.144;24.714;2023-02-22T02:13:02;99440.94;;;12.72;41.94
23170;BME280;11753;43.144;24.714;2023-02-22T02:14:03;99437.81;;;12.68;41.93
23170;BME280;11753;43.144;24.714;2023-02-22T02:15:23;99441.91;;;12.71;42.09
23170;BME280;11753;43.144;24.714;2023-02-22T02:16:30;99437.81;;;12.68;42.11
23170;BME280;11753;43.144;24.714;2023-02-22T02:17:34;99439.13;;;12.72;42.18
23170;BME280;11753;43.144;24.714;2023-02-22T02:18:36;99439.13;;;12.72;42.22
23170;BME280;11753;43.144;24.714;2023-02-22T02:20:02;99433.34;;;12.68;42.25
23170;BME280;11753;43.144;24.714;2023-02-22T02:26:39;99435.00;;;12.70;42.67
23170;BME280;11753;43.144;24.714;2023-02-22T02:32:51;99420.13;;;12.68;42.86
23170;BME280;11753;43.144;24.714;2023-02-22T02:39:09;99438.97;;;12.65;43.40
23170;BME280;11753;43.144;24.714;2023-02-22T02:42:09;99442.63;;;12.64;43.30
23170;BME280;11753;43.144;24.714;2023-02-22T02:44:25;99444.56;;;12.71;43.34
23170;BME280;11753;43.144;24.714;2023-02-22T02:45:37;99438.31;;;12.63;43.54
23170;BME280;11753;43.144;24.714;2023-02-22T02:47:02;99434.47;;;12.74;43.57
23170;BME280;11753;43.144;24.714;2023-02-22T02:48:05;99437.94;;;12.75;43.20
23170;BME280;11753;43.144;24.714;2023-02-22T02:49:24;99441.41;;;12.75;43.36
23170;BME280;11753;43.144;24.714;2023-02-22T02:50:40;99442.09;;;12.69;43.54
23170;BME280;11753;43.144;24.714;2023-02-22T02:51:48;99439.97;;;12.64;43.54
23170;BME280;11753;43.144;24.714;2023-02-22T02:52:52;99444.25;;;12.65;43.71
23170;BME280;11753;43.144;24.714;2023-02-22T02:53:56;99440.28;;;12.70;43.60
23170;BME280;11753;43.144;24.714;2023-02-22T02:54:58;99437.00;;;12.67;43.66
23170;BME280;11753;43.144;24.714;2023-02-22T02:56:00;99433.31;;;12.77;43.51
23170;BME280;11753;43.144;24.714;2023-02-22T02:57:01;99439.91;;;12.81;43.35
23170;BME280;11753;43.144;24.714;2023-02-22T02:58:04;99436.31;;;12.74;43.57
23170;BME280;11753;43.144;24.714;2023-02-22T02:59:28;99439.59;;;12.76;43.68
23170;BME280;11753;43.144;24.714;2023-02-22T03:00:32;99439.59;;;12.76;43.67
23170;BME280;11753;43.144;24.714;2023-02-22T03:02:09;99435.78;;;12.78;43.47
23170;BME280;11753;43.144;24.714;2023-02-22T03:05:45;99443.84;;;12.85;43.45
23170;BME280;11753;43.144;24.714;2023-02-22T03:11:06;99441.91;;;12.79;43.94
23170;BME280;11753;43.144;24.714;2023-02-22T03:12:35;99441.41;;;12.75;43.97
23170;BME280;11753;43.144;24.714;2023-02-22T03:17:22;99442.59;;;12.73;44.07
23170;BME280;11753;43.144;24.714;2023-02-22T03:21:00;99445.56;;;12.70;44.18
23170;BME280;11753;43.144;24.714;2023-02-22T03:22:17;99446.06;;;12.73;44.01
23170;BME280;11753;43.144;24.714;2023-02-22T03:23:28;99438.31;;;12.72;44.24
23170;BME280;11753;43.144;24.714;2023-02-22T03:26:38;99454.66;;;12.67;44.26
23170;BME280;11753;43.144;24.714;2023-02-22T03:27:44;99447.38;;;12.69;44.14
23170;BME280;11753;43.144;24.714;2023-02-22T03:28:48;99454.31;;;12.62;44.15
23170;BME280;11753;43.144;24.714;2023-02-22T03:29:54;99440.47;;;12.60;44.31
23170;BME280;11753;43.144;24.714;2023-02-22T03:31:05;99454.69;;;12.59;44.30
23170;BME280;11753;43.144;24.714;2023-02-22T03:32:12;99448.25;;;12.53;44.37
23170;BME280;11753;43.144;24.714;2023-02-22T03:33:19;99456.81;;;12.55;44.36
23170;BME280;11753;43.144;24.714;2023-02-22T03:34:31;99453.69;;;12.60;44.30
23170;BME280;11753;43.144;24.714;2023-02-22T03:35:37;99456.31;;;12.60;44.18
23170;BME280;11753;43.144;24.714;2023-02-22T03:36:47;99459.78;;;12.60;44.31
23170;BME280;11753;43.144;24.714;2023-02-22T03:37:56;99461.66;;;12.44;44.60
23170;BME280;11753;43.144;24.714;2023-02-22T03:39:00;99464.44;;;12.50;44.46
23170;BME280;11753;43.144;24.714;2023-02-22T03:40:06;99459.13;;;12.58;44.48
23170;BME280;11753;43.144;24.714;2023-02-22T03:41:17;99460.13;;;12.57;44.37
23170;BME280;11753;43.144;24.714;2023-02-22T03:42:50;99459.81;;;12.52;44.28
23170;BME280;11753;43.144;24.714;2023-02-22T03:44:02;99460.50;;;12.46;44.42
23170;BME280;11753;43.144;24.714;2023-02-22T03:45:06;99460.00;;;12.43;44.38
23170;BME280;11753;43.144;24.714;2023-02-22T03:46:10;99467.75;;;12.44;44.36
23170;BME280;11753;43.144;24.714;2023-02-22T03:47:17;99469.06;;;12.48;44.54
23170;BME280;11753;43.144;24.714;2023-02-22T03:48:34;99456.66;;;12.49;44.39
23170;BME280;11753;43.144;24.714;2023-02-22T03:49:48;99466.06;;;12.59;44.22
23170;BME280;11753;43.144;24.714;2023-02-22T03:50:52;99464.91;;;12.54;44.19
23170;BME280;11753;43.144;24.714;2023-02-22T03:51:53;99464.44;;;12.42;44.55
23170;BME280;11753;43.144;24.714;2023-02-22T03:52:54;99462.81;;;12.41;44.45
23170;BME280;11753;43.144;24.714;2023-02-22T03:53:56;99461.03;;;12.17;45.08
23170;BME280;11753;43.144;24.714;2023-02-22T03:54:57;99460.06;;;12.10;45.21
23170;BME280;11753;43.144;24.714;2023-02-22T03:55:59;99457.75;;;12.15;44.98
23170;BME280;11753;43.144;24.714;2023-02-22T03:57:16;99456.94;;;12.15;45.10
23170;BME280;11753;43.144;24.714;2023-02-22T03:58:21;99464.16;;;12.12;44.99
23170;BME280;11753;43.144;24.714;2023-02-22T03:59:24;99454.28;;;12.06;45.49
23170;BME280;11753;43.144;24.714;2023-02-22T04:00:29;99461.88;;;12.01;45.66
23170;BME280;11753;43.144;24.714;2023-02-22T04:01:31;99456.94;;;11.82;46.11
23170;BME280;11753;43.144;24.714;2023-02-22T04:02:32;99460.56;;;11.81;46.02
23170;BME280;11753;43.144;24.714;2023-02-22T04:03:33;99465.13;;;11.38;46.65
23170;BME280;11753;43.144;24.714;2023-02-22T04:04:34;99451.28;;;11.36;47.09
23170;BME280;11753;43.144;24.714;2023-02-22T04:05:34;99447.31;;;11.24;47.33
23170;BME280;11753;43.144;24.714;2023-02-22T04:06:35;99452.94;;;11.37;47.05
23170;BME280;11753;43.144;24.714;2023-02-22T04:07:36;99453.75;;;11.54;46.75
23170;BME280;11753;43.144;24.714;2023-02-22T04:08:37;99460.19;;;11.51;46.51
23170;BME280;11753;43.144;24.714;2023-02-22T04:09:38;99461.34;;;11.57;46.77
23170;BME280;11753;43.144;24.714;2023-02-22T04:10:39;99455.75;;;11.44;46.88
23170;BME280;11753;43.144;24.714;2023-02-22T04:11:41;99460.16;;;11.35;47.24
23170;BME280;11753;43.144;24.714;2023-02-22T04:12:42;99456.47;;;11.03;47.83
23170;BME280;11753;43.144;24.714;2023-02-22T04:13:42;99460.44;;;11.08;47.94
23170;BME280;11753;43.144;24.714;2023-02-22T04:14:43;99453.19;;;11.10;47.68
23170;BME280;11753;43.144;24.714;2023-02-22T04:15:44;99453.69;;;11.13;47.66
23170;BME280;11753;43.144;24.714;2023-02-22T04:16:45;99457.50;;;11.19;47.91
23170;BME280;11753;43.144;24.714;2023-02-22T04:17:46;99460.13;;;11.19;47.89
23170;BME280;11753;43.144;24.714;2023-02-22T04:18:47;99450.56;;;11.18;47.96
23170;BME280;11753;43.144;24.714;2023-02-22T04:19:48;99451.88;;;11.14;47.94
23170;BME280;11753;43.144;24.714;2023-02-22T04:20:49;99454.84;;;11.11;48.15
23170;BME280;11753;43.144;24.714;2023-02-22T04:21:50;99455.66;;;11.11;48.30
23170;BME280;11753;43.144;24.714;2023-02-22T04:22:52;99455.81;;;11.10;48.44
23170;BME280;11753;43.144;24.714;2023-02-22T04:23:52;99452.66;;;10.98;48.30
23170;BME280;11753;43.144;24.714;2023-02-22T04:24:53;99458.06;;;10.88;48.47
23170;BME280;11753;43.144;24.714;2023-02-22T04:25:54;99457.03;;;10.81;48.46
23170;BME280;11753;43.144;24.714;2023-02-22T04:26:54;99454.88;;;10.77;48.52
23170;BME280;11753;43.144;24.714;2023-02-22T04:27:55;99456.22;;;10.81;48.63
23170;BME280;11753;43.144;24.714;2023-02-22T04:28:56;99454.72;;;10.78;48.78
23170;BME280;11753;43.144;24.714;2023-02-22T04:29:57;99448.78;;;10.76;48.90
23170;BME280;11753;43.144;24.714;2023-02-22T04:30:58;99453.06;;;10.77;48.94
23170;BME280;11753;43.144;24.714;2023-02-22T04:31:59;99453.75;;;10.79;48.89
23170;BME280;11753;43.144;24.714;2023-02-22T04:33:00;99455.50;;;10.70;49.24
23170;BME280;11753;43.144;24.714;2023-02-22T04:34:01;99457.84;;;10.73;49.29
23170;BME280;11753;43.144;24.714;2023-02-22T04:35:04;99455.00;;;10.67;49.33
23170;BME280;11753;43.144;24.714;2023-02-22T04:36:07;99456.97;;;10.65;49.55
23170;BME280;11753;43.144;24.714;2023-02-22T04:37:08;99454.59;;;10.54;49.55
23170;BME280;11753;43.144;24.714;2023-02-22T04:38:10;99455.19;;;10.39;49.95
23170;BME280;11753;43.144;24.714;2023-02-22T04:39:11;99447.81;;;10.43;50.06
23170;BME280;11753;43.144;24.714;2023-02-22T04:40:12;99448.41;;;10.29;50.71
23170;BME280;11753;43.144;24.714;2023-02-22T04:41:13;99455.16;;;10.31;50.85
23170;BME280;11753;43.144;24.714;2023-02-22T04:42:14;99455.75;;;10.25;51.09
23170;BME280;11753;43.144;24.714;2023-02-22T04:43:15;99445.59;;;10.30;51.02
23170;BME280;11753;43.144;24.714;2023-02-22T04:44:16;99446.72;;;10.28;51.25
23170;BME280;11753;43.144;24.714;2023-02-22T04:45:17;99442.78;;;10.24;51.59
23170;BME280;11753;43.144;24.714;2023-02-22T04:46:18;99446.06;;;10.26;51.35
23170;BME280;11753;43.144;24.714;2023-02-22T04:47:21;99450.09;;;10.20;51.64
23170;BME280;11753;43.144;24.714;2023-02-22T04:48:22;99446.38;;;10.23;51.60
23170;BME280;11753;43.144;24.714;2023-02-22T04:49:23;99444.09;;;10.28;51.50
23170;BME280;11753;43.144;24.714;2023-02-22T04:50:24;99441.00;;;10.32;51.50
23170;BME280;11753;43.144;24.714;2023-02-22T04:51:25;99449.88;;;10.31;51.56
23170;BME280;11753;43.144;24.714;2023-02-22T04:52:26;99450.88;;;10.30;51.88
23170;BME280;11753;43.144;24.714;2023-02-22T04:53:27;99454.53;;;10.37;51.82
23170;BME280;11753;43.144;24.714;2023-02-22T04:54:28;99452.88;;;10.36;51.44
23170;BME280;11753;43.144;24.714;2023-02-22T04:55:29;99452.56;;;10.39;51.63
23170;BME280;11753;43.144;24.714;2023-02-22T04:56:30;99457.41;;;10.52;51.25
23170;BME280;11753;43.144;24.714;2023-02-22T04:57:31;99457.69;;;10.49;51.31
23170;BME280;11753;43.144;24.714;2023-02-22T04:58:32;99463.50;;;10.53;51.20
23170;BME280;11753;43.144;24.714;2023-02-22T04:59:33;99460.28;;;10.67;50.72
23170;BME280;11753;43.144;24.714;2023-02-22T05:00:34;99462.94;;;10.75;50.54
23170;BME280;11753;43.144;24.714;2023-02-22T05:01:36;99459.84;;;10.80;50.35
23170;BME280;11753;43.144;24.714;2023-02-22T05:02:37;99462.81;;;10.93;49.98
23170;BME280;11753;43.144;24.714;2023-02-22T05:03:39;99464.31;;;10.87;50.20
23170;BME280;11753;43.144;24.714;2023-02-22T05:04:40;99454.78;;;10.94;50.27
23170;BME280;11753;43.144;24.714;2023-02-22T05:05:40;99463.72;;;11.01;49.96
23170;BME280;11753;43.144;24.714;2023-02-22T05:06:41;99469.47;;;11.05;49.97
23170;BME280;11753;43.144;24.714;2023-02-22T05:07:42;99471.63;;;11.10;49.88
23170;BME280;11753;43.144;24.714;2023-02-22T05:08:43;99461.09;;;11.10;49.92
23170;BME280;11753;43.144;24.714;2023-02-22T05:09:44;99470.66;;;11.19;49.86
23170;BME280;11753;43.144;24.714;2023-02-22T05:10:45;99476.28;;;11.24;49.96
23170;BME280;11753;43.144;24.714;2023-02-22T05:11:46;99466.22;;;11.27;49.59
23170;BME280;11753;43.144;24.714;2023-02-22T05:12:47;99473.31;;;11.35;49.62
23170;BME280;11753;43.144;24.714;2023-02-22T05:13:48;99471.69;;;11.34;49.46
23170;BME280;11753;43.144;24.714;2023-02-22T05:14:49;99473.69;;;11.48;49.39
23170;BME280;11753;43.144;24.714;2023-02-22T05:15:50;99471.72;;;11.50;49.29
23170;BME280;11753;43.144;24.714;2023-02-22T05:16:54;99475.38;;;11.57;49.05
23170;BME280;11753;43.144;24.714;2023-02-22T05:17:55;99472.56;;;11.59;49.10
23170;BME280;11753;43.144;24.714;2023-02-22T05:18:56;99473.56;;;11.66;48.92
23170;BME280;11753;43.144;24.714;2023-02-22T05:19:57;99474.03;;;11.62;48.93
23170;BME280;11753;43.144;24.714;2023-02-22T05:20:58;99467.78;;;11.63;48.99
23170;BME280;11753;43.144;24.714;2023-02-22T05:21:59;99476.84;;;11.68;48.96
23170;BME280;11753;43.144;24.714;2023-02-22T05:23:01;99476.69;;;11.70;48.98
23170;BME280;11753;43.144;24.714;2023-02-22T05:24:02;99471.75;;;11.75;48.99
23170;BME280;11753;43.144;24.714;2023-02-22T05:25:03;99483.66;;;11.87;48.74
23170;BME280;11753;43.144;24.714;2023-02-22T05:26:04;99474.22;;;11.93;48.40
23170;BME280;11753;43.144;24.714;2023-02-22T05:27:06;99474.22;;;11.93;48.49
23170;BME280;11753;43.144;24.714;2023-02-22T05:28:11;99475.56;;;11.97;48.51
23170;BME280;11753;43.144;24.714;2023-02-22T05:29:12;99482.66;;;11.96;48.49
23170;BME280;11753;43.144;24.714;2023-02-22T05:30:14;99476.06;;;12.00;48.47
23170;BME280;11753;43.144;24.714;2023-02-22T05:31:16;99479.69;;;12.07;48.25
23170;BME280;11753;43.144;24.714;2023-02-22T05:32:17;99480.69;;;12.15;48.18
23170;BME280;11753;43.144;24.714;2023-02-22T05:33:18;99490.22;;;12.24;47.76
23170;BME280;11753;43.144;24.714;2023-02-22T05:34:19;99483.94;;;12.25;47.72
23170;BME280;11753;43.144;24.714;2023-02-22T05:35:21;99488.25;;;12.26;47.87
23170;BME280;11753;43.144;24.714;2023-02-22T05:36:24;99481.66;;;12.30;47.70
23170;BME280;11753;43.144;24.714;2023-02-22T05:37:25;99485.75;;;12.32;47.71
23170;BME280;11753;43.144;24.714;2023-02-22T05:38:25;99491.00;;;12.40;47.59
23170;BME280;11753;43.144;24.714;2023-02-22T05:39:26;99490.53;;;12.45;47.51
23170;BME280;11753;43.144;24.714;2023-02-22T05:40:28;99490.31;;;12.55;47.27
23170;BME280;11753;43.144;24.714;2023-02-22T05:41:30;99488.22;;;12.50;47.33
23170;BME280;11753;43.144;24.714;2023-02-22T05:42:31;99490.31;;;12.55;47.29
23170;BME280;11753;43.144;24.714;2023-02-22T05:43:32;99492.16;;;12.54;47.59
23170;BME280;11753;43.144;24.714;2023-02-22T05:44:33;99492.47;;;12.59;47.45
23170;BME280;11753;43.144;24.714;2023-02-22T05:45:34;99502.69;;;12.62;47.23
23170;BME280;11753;43.144;24.714;2023-02-22T05:46:35;99498.72;;;12.66;46.94
23170;BME280;11753;43.144;24.714;2023-02-22T05:47:36;99492.25;;;12.69;47.04
23170;BME280;11753;43.144;24.714;2023-02-22T05:48:37;99496.88;;;12.75;46.94
23170;BME280;11753;43.144;24.714;2023-02-22T05:49:38;99497.69;;;12.76;46.83
23170;BME280;11753;43.144;24.714;2023-02-22T05:50:39;99498.03;;;12.81;46.85
23170;BME280;11753;43.144;24.714;2023-02-22T05:51:40;99493.88;;;12.86;46.52
23170;BME280;11753;43.144;24.714;2023-02-22T05:52:41;99502.63;;;12.87;46.63
23170;BME280;11753;43.144;24.714;2023-02-22T05:53:42;99504.91;;;12.90;46.64
23170;BME280;11753;43.144;24.714;2023-02-22T05:54:43;99505.22;;;12.95;46.41
23170;BME280;11753;43.144;24.714;2023-02-22T05:55:49;99509.53;;;12.96;46.63
23170;BME280;11753;43.144;24.714;2023-02-22T05:56:50;99501.94;;;12.93;46.73
23170;BME280;11753;43.144;24.714;2023-02-22T05:57:52;99501.94;;;12.93;46.32
23170;BME280;11753;43.144;24.714;2023-02-22T05:58:53;99497.94;;;12.97;46.44
23170;BME280;11753;43.144;24.714;2023-02-22T05:59:54;99497.59;;;13.08;46.23
23170;BME280;11753;43.144;24.714;2023-02-22T06:00:55;99506.47;;;13.07;46.16
23170;BME280;11753;43.144;24.714;2023-02-22T06:01:59;99504.16;;;13.12;46.26
23170;BME280;11753;43.144;24.714;2023-02-22T06:03:05;99506.09;;;13.27;45.83
23170;BME280;11753;43.144;24.714;2023-02-22T06:04:06;99499.34;;;13.24;45.73
23170;BME280;11753;43.144;24.714;2023-02-22T06:05:08;99506.91;;;13.27;45.70
23170;BME280;11753;43.144;24.714;2023-02-22T06:06:09;99508.06;;;13.33;45.82
23170;BME280;11753;43.144;24.714;2023-02-22T06:07:11;99507.06;;;13.34;45.79
23170;BME280;11753;43.144;24.714;2023-02-22T06:08:12;99505.84;;;13.44;45.52